首页
METAR-TAF:

METAR-TAF

机场 :

Wick, 苏格兰

纬度: 58-27N, 经度: 003-05W, 海拔: 39米

当前天气观测

该预报发布于38分钟前的07:50 UTC
风速4节,风向西转西北
温度 1°C
湿度 93%
气压 1009 hPa
能见度10公里或以上
少量云层高于600英尺, 积雨云.
散云层高于2200英尺
附近有阵雨

METAR: EGPC 030750Z 29004KT 9999 VCSH FEW006CB SCT022 01/M00 Q1009

时间: 09:28 (08:28 UTC)

预报

该预报发布于2小时和22分钟前的06:06 UTC
预报有效从03日的 06点(UTC)到 03日的 15点(UTC)
风速9节,风向西转西北
能见度10公里或以上
散云层高于3000英尺
短暂存在
从 03日的 06点(UTC)到 03日的 10点(UTC)
能見度: 1500
多云层高于400英尺
多云层高于1400英尺, 积雨云.
阵雪
几率 40% :
短暂存在
从 03日的 10点(UTC)到 03日的 15点(UTC)
能見度: 2000
多云层高于700英尺
多云层高于1500英尺, 积雨云.
阵雪

TAF: EGPC 030606Z 0306/0315 29009KT 9999 SCT030 TEMPO 0306/0310 1500 SHSN BKN004 BKN014CB PROB40 TEMPO 0310/0315 2000 SHSN BKN007 BKN015CB

超过4000个机场的气象观测和天气预报(METAR&TAF报告)。

可查询的气象台以黄色和红色小点在地图上表示。

将鼠标移到小点上方,可查看气象台名称。

然后点击查看天气观测和预报。

如需切换地图:点击带黑十字的绿色按钮放大地图;点击带横线的绿色按钮缩小地图;或者点击绿色箭头查看邻近地区的地图。


METAR-TAF: